createdAt,value
2017-09-20T00:01:03.637Z,99.99
2017-09-20T00:02:12.827Z,99.99
2017-09-20T00:03:21.363Z,99.99
2017-09-20T00:04:30.550Z,99.99
2017-09-20T00:05:39.419Z,99.99
2017-09-20T00:06:48.281Z,99.99
2017-09-20T00:07:56.823Z,99.99
2017-09-20T00:09:05.363Z,99.99
2017-09-20T00:10:14.227Z,99.99
2017-09-20T00:11:23.736Z,99.99
2017-09-20T00:12:32.600Z,99.99
2017-09-20T00:13:41.142Z,99.99
2017-09-20T00:14:50.011Z,99.99
2017-09-20T00:15:58.873Z,99.99
2017-09-20T00:17:08.064Z,99.99
2017-09-20T00:18:16.603Z,99.99
2017-09-20T00:19:25.471Z,99.99
2017-09-20T00:20:34.009Z,99.99
2017-09-20T00:21:42.552Z,99.99
2017-09-20T00:22:51.418Z,99.99
2017-09-20T00:24:01.405Z,99.99
2017-09-20T00:25:09.946Z,99.99
2017-09-20T00:26:18.487Z,99.99
2017-09-20T00:27:27.027Z,99.99
2017-09-20T00:28:35.894Z,99.99
2017-09-20T00:29:44.431Z,99.99
2017-09-20T00:30:52.969Z,99.99
2017-09-20T00:32:01.835Z,99.99
2017-09-20T00:33:10.377Z,99.99
2017-09-20T00:34:18.916Z,99.99
2017-09-20T00:35:27.778Z,99.99
2017-09-20T00:36:36.648Z,99.99
2017-09-20T00:37:45.194Z,99.99
2017-09-20T00:38:54.054Z,99.99
2017-09-20T00:40:03.240Z,99.99
2017-09-20T00:41:12.101Z,99.99
2017-09-20T00:42:20.642Z,99.99
2017-09-20T00:43:29.504Z,99.99
2017-09-20T00:44:38.045Z,99.99
2017-09-20T00:45:46.589Z,99.99
2017-09-20T00:46:55.130Z,99.99
2017-09-20T00:48:03.999Z,99.99
2017-09-20T00:49:12.541Z,99.99
2017-09-20T00:50:21.726Z,99.99
2017-09-20T00:51:30.592Z,99.99
2017-09-20T00:52:40.552Z,99.99
2017-09-20T00:53:49.418Z,99.99
2017-09-20T00:54:57.958Z,99.99
2017-09-20T00:56:06.498Z,99.99
2017-09-20T00:57:15.039Z,99.99
2017-09-20T00:58:23.906Z,99.99
2017-09-20T00:59:32.769Z,99.99
2017-09-20T01:00:41.308Z,99.99
2017-09-20T01:01:49.846Z,99.99
2017-09-20T01:02:58.383Z,99.99
2017-09-20T01:04:06.921Z,99.99
2017-09-20T01:05:15.465Z,99.99
2017-09-20T01:06:24.327Z,99.99
2017-09-20T01:07:32.870Z,99.99
2017-09-20T01:08:41.732Z,99.99
2017-09-20T01:09:50.273Z,99.99
2017-09-20T01:10:59.460Z,99.99
2017-09-20T01:12:08.323Z,99.99
2017-09-20T01:13:16.862Z,99.99
2017-09-20T01:14:25.724Z,99.99
2017-09-20T01:15:34.591Z,99.99
2017-09-20T01:16:43.455Z,99.99
2017-09-20T01:17:52.318Z,99.99
2017-09-20T01:19:00.860Z,99.99
2017-09-20T01:20:09.402Z,99.99
2017-09-20T01:21:17.945Z,99.99
2017-09-20T01:22:26.487Z,99.99
2017-09-20T01:23:35.030Z,99.99
2017-09-20T01:24:44.226Z,99.99
2017-09-20T01:25:53.088Z,99.99
2017-09-20T01:27:01.632Z,99.99
2017-09-20T01:28:10.499Z,99.99
2017-09-20T01:29:19.043Z,99.99
2017-09-20T01:30:27.588Z,99.99
2017-09-20T01:31:36.449Z,99.99
2017-09-20T01:32:45.314Z,99.99
2017-09-20T01:33:53.854Z,99.99
2017-09-20T01:35:02.724Z,99.99
2017-09-20T01:36:11.262Z,99.99
2017-09-20T01:37:20.121Z,99.99
2017-09-20T01:38:28.988Z,99.99
2017-09-20T01:39:37.529Z,99.99
2017-09-20T01:40:46.074Z,99.99
2017-09-20T01:41:54.940Z,99.99
2017-09-20T01:43:03.808Z,99.99
2017-09-20T01:44:12.349Z,99.99
2017-09-20T01:45:21.207Z,99.99
2017-09-20T01:46:29.750Z,99.99
2017-09-20T01:47:38.613Z,99.99
2017-09-20T01:48:47.476Z,99.99
2017-09-20T01:49:56.336Z,99.99
2017-09-20T01:51:05.526Z,99.99
2017-09-20T01:52:14.066Z,99.99
2017-09-20T01:53:22.607Z,99.99
2017-09-20T01:54:31.471Z,99.99
2017-09-20T01:55:40.333Z,99.99
2017-09-20T01:56:49.194Z,99.99
2017-09-20T01:57:58.057Z,99.99
2017-09-20T01:59:06.929Z,99.99
2017-09-20T02:00:15.791Z,99.99
2017-09-20T02:01:24.341Z,99.99
2017-09-20T02:02:33.856Z,99.99
2017-09-20T02:03:42.396Z,99.99
2017-09-20T02:04:50.940Z,99.99
2017-09-20T02:05:59.483Z,99.99
2017-09-20T02:07:08.676Z,99.99
2017-09-20T02:08:17.865Z,99.99
2017-09-20T02:09:26.402Z,99.99
2017-09-20T02:10:35.271Z,99.99
2017-09-20T02:11:43.839Z,99.99
2017-09-20T02:12:52.668Z,99.99
2017-09-20T02:14:01.858Z,99.99
2017-09-20T02:15:10.726Z,99.99
2017-09-20T02:16:19.269Z,99.99
2017-09-20T02:17:27.808Z,99.99
2017-09-20T02:18:36.674Z,99.99
2017-09-20T02:19:45.214Z,99.99
2017-09-20T02:20:54.076Z,99.99
2017-09-20T02:22:02.618Z,99.99
2017-09-20T02:23:11.158Z,99.99
2017-09-20T02:24:19.699Z,99.99
2017-09-20T02:25:28.563Z,99.99
2017-09-20T02:26:37.106Z,99.99
2017-09-20T02:27:45.972Z,99.99
2017-09-20T02:28:54.840Z,99.99
2017-09-20T02:30:03.380Z,99.99
2017-09-20T02:31:12.246Z,99.99
2017-09-20T02:32:21.108Z,99.99
2017-09-20T02:33:29.646Z,99.99
2017-09-20T02:34:38.189Z,99.99
2017-09-20T02:35:46.732Z,99.99
2017-09-20T02:36:55.919Z,99.99
2017-09-20T02:38:04.461Z,99.99
2017-09-20T02:39:13.326Z,99.99
2017-09-20T02:40:22.191Z,99.99
2017-09-20T02:41:31.374Z,99.99
2017-09-20T02:42:40.237Z,99.99
2017-09-20T02:43:48.775Z,99.99
2017-09-20T02:44:57.317Z,99.99
2017-09-20T02:46:06.505Z,99.99
2017-09-20T02:47:15.044Z,99.99
2017-09-20T02:48:23.583Z,99.99
2017-09-20T02:49:32.122Z,99.99
2017-09-20T02:50:40.665Z,99.99
2017-09-20T02:51:49.527Z,99.99
2017-09-20T02:52:58.391Z,99.99
2017-09-20T02:54:07.902Z,99.99
2017-09-20T02:55:16.746Z,99.99
2017-09-20T02:56:26.258Z,99.99
2017-09-20T02:57:34.795Z,99.99
2017-09-20T02:58:43.662Z,99.99
2017-09-20T02:59:52.201Z,99.99
2017-09-20T03:01:00.739Z,99.99
2017-09-20T03:02:09.927Z,99.99
2017-09-20T03:03:18.785Z,99.99
2017-09-20T03:04:27.328Z,99.99
2017-09-20T03:05:35.866Z,99.99
2017-09-20T03:06:44.403Z,99.99
2017-09-20T03:07:52.945Z,99.99
2017-09-20T03:09:01.808Z,99.99
2017-09-20T03:10:11.321Z,99.99
2017-09-20T03:11:20.183Z,99.99
2017-09-20T03:12:29.050Z,99.99
2017-09-20T03:13:37.589Z,99.99
2017-09-20T03:14:46.451Z,99.99
2017-09-20T03:15:55.637Z,99.99
2017-09-20T03:17:05.145Z,99.99
2017-09-20T03:18:13.690Z,99.99
2017-09-20T03:19:22.555Z,99.99
2017-09-20T03:20:31.416Z,99.99
2017-09-20T03:21:39.959Z,99.99
2017-09-20T03:22:48.821Z,99.99
2017-09-20T03:23:57.788Z,99.99
2017-09-20T03:25:06.655Z,99.99
2017-09-20T03:26:15.197Z,99.99
2017-09-20T03:27:24.060Z,99.99
2017-09-20T03:28:32.926Z,99.99
2017-09-20T03:29:41.467Z,99.99
2017-09-20T03:30:50.014Z,99.99
2017-09-20T03:31:59.205Z,99.99
2017-09-20T03:33:08.072Z,99.99
2017-09-20T03:34:16.613Z,99.99
2017-09-20T03:35:25.152Z,99.99
2017-09-20T03:36:34.013Z,99.99
2017-09-20T03:37:42.880Z,99.99
2017-09-20T03:38:51.745Z,99.99
2017-09-20T03:40:00.284Z,99.99
2017-09-20T03:41:08.834Z,99.99
2017-09-20T03:42:17.702Z,99.99
2017-09-20T03:43:26.567Z,99.99
2017-09-20T03:44:35.106Z,99.99
2017-09-20T03:45:43.969Z,99.99
2017-09-20T03:46:52.508Z,99.99
2017-09-20T03:48:01.373Z,99.99
2017-09-20T03:49:10.237Z,99.99
2017-09-20T03:50:18.780Z,99.99
2017-09-20T03:51:27.650Z,99.99
2017-09-20T03:52:37.199Z,99.99
2017-09-20T03:53:45.741Z,99.99
2017-09-20T03:54:54.604Z,99.99
2017-09-20T03:56:03.144Z,99.99
2017-09-20T03:57:11.686Z,99.99
2017-09-20T03:58:20.224Z,99.99
2017-09-20T03:59:29.734Z,99.99
2017-09-20T04:00:38.278Z,99.99
2017-09-20T04:01:47.142Z,99.99
2017-09-20T04:02:56.004Z,99.99
2017-09-20T04:04:04.546Z,99.99
2017-09-20T04:05:13.413Z,99.99
2017-09-20T04:06:22.279Z,99.99
2017-09-20T04:07:31.144Z,99.99
2017-09-20T04:08:40.008Z,99.99
2017-09-20T04:09:48.548Z,99.99
2017-09-20T04:10:57.091Z,99.99
2017-09-20T04:12:05.631Z,99.99
2017-09-20T04:13:14.496Z,99.99
2017-09-20T04:14:23.038Z,99.99
2017-09-20T04:15:31.902Z,99.99
2017-09-20T04:16:40.761Z,99.99
2017-09-20T04:17:49.304Z,99.99
2017-09-20T04:18:57.845Z,99.99
2017-09-20T04:20:06.748Z,99.99
2017-09-20T04:21:15.292Z,99.99
2017-09-20T04:22:23.832Z,99.99
2017-09-20T04:23:32.373Z,99.99
2017-09-20T04:24:40.918Z,99.99
2017-09-20T04:25:49.457Z,99.99
2017-09-20T04:26:57.998Z,99.99
2017-09-20T04:28:06.866Z,99.99
2017-09-20T04:29:15.739Z,99.99
2017-09-20T04:30:24.601Z,99.99
2017-09-20T04:31:33.789Z,99.99
2017-09-20T04:32:42.653Z,99.99
2017-09-20T04:33:51.198Z,99.99
2017-09-20T04:35:00.072Z,99.99
2017-09-20T04:36:08.939Z,99.99
2017-09-20T04:37:17.800Z,99.99
2017-09-20T04:38:26.339Z,99.99
2017-09-20T04:39:35.528Z,99.99
2017-09-20T04:40:44.715Z,99.99
2017-09-20T04:41:53.257Z,99.99
2017-09-20T04:43:02.123Z,99.99
2017-09-20T04:44:10.984Z,99.99
2017-09-20T04:45:19.528Z,99.99
2017-09-20T04:46:28.394Z,99.99
2017-09-20T04:47:37.260Z,99.99
2017-09-20T04:48:45.798Z,99.99
2017-09-20T04:49:54.339Z,99.99
2017-09-20T04:51:03.203Z,99.99
2017-09-20T04:52:12.070Z,99.99
2017-09-20T04:53:21.586Z,99.99
2017-09-20T04:54:30.125Z,99.99
2017-09-20T04:55:39.311Z,99.99
2017-09-20T04:56:47.857Z,99.99
2017-09-20T04:57:56.404Z,99.99
2017-09-20T04:59:05.272Z,99.99
2017-09-20T05:00:13.813Z,99.99
2017-09-20T05:01:22.353Z,99.99
2017-09-20T05:02:31.213Z,99.99
2017-09-20T05:03:40.082Z,99.99
2017-09-20T05:04:48.954Z,99.99
2017-09-20T05:05:57.822Z,99.99
2017-09-20T05:07:06.688Z,99.99
2017-09-20T05:08:15.228Z,99.99
2017-09-20T05:09:25.718Z,99.99
2017-09-20T05:10:34.312Z,99.99
2017-09-20T05:11:43.174Z,99.99
2017-09-20T05:12:52.376Z,99.99
2017-09-20T05:14:00.917Z,99.99
2017-09-20T05:15:09.465Z,99.99
2017-09-20T05:16:18.367Z,99.99
2017-09-20T05:17:26.874Z,99.99
2017-09-20T05:18:35.741Z,99.99
2017-09-20T05:19:44.610Z,99.99
2017-09-20T05:20:53.474Z,99.99
2017-09-20T05:22:02.339Z,99.99
2017-09-20T05:23:11.202Z,99.99
2017-09-20T05:24:20.066Z,99.99
2017-09-20T05:25:29.289Z,99.99
2017-09-20T05:26:38.441Z,99.99
2017-09-20T05:27:46.983Z,99.99
2017-09-20T05:28:55.847Z,99.99
2017-09-20T05:30:04.713Z,99.99
2017-09-20T05:31:13.898Z,99.99
2017-09-20T05:32:23.083Z,99.99
2017-09-20T05:33:31.628Z,99.99
2017-09-20T05:34:40.168Z,99.99
2017-09-20T05:35:48.708Z,99.99
2017-09-20T05:36:57.574Z,99.99
2017-09-20T05:38:06.437Z,99.99
2017-09-20T05:39:14.979Z,99.99
2017-09-20T05:40:23.845Z,99.99
2017-09-20T05:41:32.740Z,99.99
2017-09-20T05:42:41.924Z,99.99
2017-09-20T05:43:50.784Z,99.99
2017-09-20T05:44:59.323Z,99.99
2017-09-20T05:46:07.864Z,99.99
2017-09-20T05:47:16.728Z,99.99
2017-09-20T05:48:25.918Z,99.99
2017-09-20T05:49:34.462Z,99.99
2017-09-20T05:50:43.647Z,99.99
2017-09-20T05:51:52.513Z,99.99
2017-09-20T05:53:02.029Z,99.99
2017-09-20T05:54:10.571Z,99.99
2017-09-20T05:55:19.762Z,99.99
2017-09-20T05:56:28.624Z,99.99
2017-09-20T05:57:37.167Z,99.99
2017-09-20T05:58:45.710Z,99.99
2017-09-20T05:59:54.573Z,99.99
2017-09-20T06:01:03.441Z,99.99
2017-09-20T06:02:12.952Z,99.99
2017-09-20T06:03:21.498Z,99.99
2017-09-20T06:04:30.363Z,99.99
2017-09-20T06:05:39.230Z,99.99
2017-09-20T06:06:48.097Z,99.99
2017-09-20T06:07:56.638Z,99.99
2017-09-20T06:09:05.501Z,99.99
2017-09-20T06:10:14.043Z,99.99
2017-09-20T06:11:22.913Z,99.99
2017-09-20T06:12:31.775Z,99.99
2017-09-20T06:13:40.960Z,99.99
2017-09-20T06:14:49.503Z,99.99
2017-09-20T06:15:58.368Z,99.99
2017-09-20T06:17:06.907Z,99.99
2017-09-20T06:18:15.450Z,99.99
2017-09-20T06:19:23.991Z,99.99
2017-09-20T06:20:32.857Z,99.99
2017-09-20T06:21:41.722Z,99.99
2017-09-20T06:22:50.590Z,99.99
2017-09-20T06:24:00.104Z,99.99
2017-09-20T06:25:09.292Z,99.99
2017-09-20T06:26:18.160Z,99.99
2017-09-20T06:27:27.023Z,99.99
2017-09-20T06:28:35.563Z,99.99
2017-09-20T06:29:44.307Z,99.99
2017-09-20T06:30:52.851Z,99.99
2017-09-20T06:32:01.714Z,99.99
2017-09-20T06:33:10.580Z,99.99
2017-09-20T06:34:19.125Z,99.99
2017-09-20T06:35:27.862Z,99.99
2017-09-20T06:36:36.408Z,99.99
2017-09-20T06:37:45.278Z,99.99
2017-09-20T06:38:53.823Z,99.99
2017-09-20T06:40:02.686Z,99.99
2017-09-20T06:41:11.869Z,99.99
2017-09-20T06:42:20.412Z,99.99
2017-09-20T06:43:28.955Z,99.99
2017-09-20T06:44:38.145Z,99.99
2017-09-20T06:45:46.685Z,99.99
2017-09-20T06:46:55.607Z,99.99
2017-09-20T06:48:04.445Z,99.99
2017-09-20T06:49:13.312Z,99.99
2017-09-20T06:50:21.860Z,99.99
2017-09-20T06:51:30.398Z,99.99
2017-09-20T06:52:39.587Z,99.99
2017-09-20T06:53:48.250Z,99.99
2017-09-20T06:54:57.442Z,99.99
2017-09-20T06:56:06.306Z,99.99
2017-09-20T06:57:15.193Z,99.99
2017-09-20T06:58:23.736Z,99.99
2017-09-20T06:59:32.601Z,99.99
2017-09-20T07:00:41.465Z,99.99
2017-09-20T07:01:50.011Z,99.99
2017-09-20T07:02:58.556Z,99.99
2017-09-20T07:04:07.745Z,99.99
2017-09-20T07:05:16.615Z,99.99
2017-09-20T07:06:25.160Z,99.99
2017-09-20T07:07:34.027Z,99.99
2017-09-20T07:08:42.570Z,99.99
2017-09-20T07:09:51.110Z,99.99
2017-09-20T07:10:59.654Z,99.99
2017-09-20T07:12:08.239Z,99.99
2017-09-20T07:13:16.779Z,99.99
2017-09-20T07:14:25.967Z,99.99
2017-09-20T07:15:35.483Z,99.99
2017-09-20T07:16:44.352Z,99.99
2017-09-20T07:17:52.892Z,99.99
2017-09-20T07:19:01.758Z,99.99
2017-09-20T07:20:10.302Z,99.99
2017-09-20T07:21:19.490Z,99.99
2017-09-20T07:22:29.248Z,99.99
2017-09-20T07:23:38.769Z,99.99
2017-09-20T07:24:47.637Z,99.99
2017-09-20T07:25:56.504Z,99.99
2017-09-20T07:27:05.728Z,99.99
2017-09-20T07:28:14.689Z,99.99
2017-09-20T07:29:23.235Z,99.99
2017-09-20T07:30:31.784Z,99.99
2017-09-20T07:31:40.655Z,99.99
2017-09-20T07:32:49.198Z,99.99
2017-09-20T07:33:57.781Z,99.99
2017-09-20T07:35:06.972Z,99.99
2017-09-20T07:36:15.519Z,99.99
2017-09-20T07:37:24.061Z,99.99
2017-09-20T07:38:33.019Z,99.99
2017-09-20T07:39:41.945Z,99.99
2017-09-20T07:40:50.488Z,99.99
2017-09-20T07:41:59.364Z,99.99
2017-09-20T07:43:07.908Z,99.99
2017-09-20T07:44:17.098Z,99.99
2017-09-20T07:45:25.644Z,99.99
2017-09-20T07:46:34.489Z,99.99
2017-09-20T07:47:43.357Z,99.99
2017-09-20T07:48:51.901Z,99.99
2017-09-20T07:50:00.446Z,99.99
2017-09-20T07:51:09.083Z,99.99
2017-09-20T07:52:18.603Z,99.99
2017-09-20T07:53:27.470Z,99.99
2017-09-20T07:54:36.013Z,99.99
2017-09-20T07:55:45.702Z,99.99
2017-09-20T07:56:54.575Z,99.99
2017-09-20T07:58:03.765Z,99.99
2017-09-20T07:59:12.633Z,99.99
2017-09-20T08:00:21.503Z,99.99
2017-09-20T08:01:30.046Z,99.99
2017-09-20T08:02:38.912Z,99.99
2017-09-20T08:03:47.779Z,99.99
2017-09-20T08:04:56.325Z,99.99
2017-09-20T08:06:05.196Z,99.99
2017-09-20T08:07:13.741Z,99.99
2017-09-20T08:08:22.941Z,99.99
2017-09-20T08:09:31.486Z,99.99
2017-09-20T08:10:40.354Z,99.99
2017-09-20T08:11:49.106Z,99.99
2017-09-20T08:12:58.301Z,99.99
2017-09-20T08:14:07.169Z,99.99
2017-09-20T08:15:16.039Z,99.99
2017-09-20T08:16:24.913Z,99.99
2017-09-20T08:17:33.781Z,99.99
2017-09-20T08:18:42.650Z,99.99
2017-09-20T08:19:51.516Z,99.99
2017-09-20T08:21:00.062Z,99.99
2017-09-20T08:22:08.612Z,99.99
2017-09-20T08:23:17.487Z,99.99
2017-09-20T08:24:26.727Z,99.99
2017-09-20T08:25:35.282Z,99.99
2017-09-20T08:26:44.231Z,99.99
2017-09-20T08:27:53.469Z,99.99
2017-09-20T08:29:02.342Z,99.99
2017-09-20T08:30:11.219Z,99.99
2017-09-20T08:31:20.411Z,99.99
2017-09-20T08:32:29.274Z,99.99
2017-09-20T08:33:38.469Z,99.99
2017-09-20T08:34:47.015Z,99.99
2017-09-20T08:35:55.662Z,99.99
2017-09-20T08:37:04.593Z,99.99
2017-09-20T08:38:13.465Z,99.99
2017-09-20T08:39:22.010Z,99.99
2017-09-20T08:40:31.200Z,99.99
2017-09-20T08:41:39.745Z,99.99
2017-09-20T08:42:48.937Z,99.99
2017-09-20T08:43:57.487Z,99.99
2017-09-20T08:45:06.353Z,99.99
2017-09-20T08:46:15.242Z,99.99
2017-09-20T08:47:23.786Z,99.99
2017-09-20T08:48:32.439Z,99.99
2017-09-20T08:49:41.492Z,99.99
2017-09-20T08:50:50.568Z,99.99
2017-09-20T08:51:59.112Z,99.99
2017-09-20T08:53:07.983Z,99.99
2017-09-20T08:54:17.199Z,99.99
2017-09-20T08:55:25.744Z,99.99
2017-09-20T08:56:35.415Z,99.99
2017-09-20T08:57:43.966Z,99.99
2017-09-20T08:58:52.509Z,99.99
2017-09-20T09:00:01.140Z,99.99
2017-09-20T09:01:10.010Z,99.99
2017-09-20T09:02:18.881Z,99.99
2017-09-20T09:03:28.074Z,99.99
2017-09-20T09:04:36.941Z,99.99
2017-09-20T09:05:45.810Z,99.99
2017-09-20T09:06:54.686Z,99.99
2017-09-20T09:08:03.552Z,99.99
2017-09-20T09:09:12.198Z,99.99
2017-09-20T09:10:20.740Z,99.99
2017-09-20T09:11:29.285Z,99.99
2017-09-20T09:12:37.824Z,99.99
2017-09-20T09:13:47.017Z,99.99
2017-09-20T09:14:55.563Z,99.99
2017-09-20T09:16:04.108Z,99.99
2017-09-20T09:17:12.980Z,99.99
2017-09-20T09:18:21.849Z,99.99
2017-09-20T09:19:31.041Z,99.99
2017-09-20T09:20:39.588Z,99.99
2017-09-20T09:21:48.457Z,99.99
2017-09-20T09:22:57.653Z,99.99
2017-09-20T09:24:06.521Z,99.99
2017-09-20T09:25:15.066Z,99.99
2017-09-20T09:26:23.613Z,99.99
2017-09-20T09:27:32.802Z,99.99
2017-09-20T09:28:41.345Z,99.99
2017-09-20T09:29:49.893Z,99.99
2017-09-20T09:30:58.453Z,99.99
2017-09-20T09:32:07.973Z,99.99
2017-09-20T09:33:17.168Z,99.99
2017-09-20T09:34:25.766Z,99.99
2017-09-20T09:35:35.025Z,99.99
2017-09-20T09:36:44.197Z,99.99
2017-09-20T09:37:53.095Z,99.99
2017-09-20T09:39:01.643Z,99.99
2017-09-20T09:40:10.836Z,99.99
2017-09-20T09:41:19.381Z,99.99
2017-09-20T09:42:27.925Z,99.99
2017-09-20T09:43:36.791Z,99.99
2017-09-20T09:44:45.661Z,99.99
2017-09-20T09:45:54.529Z,99.99
2017-09-20T09:47:04.229Z,99.99
2017-09-20T09:48:12.775Z,99.99
2017-09-20T09:49:21.325Z,99.99
2017-09-20T09:50:29.869Z,99.99
2017-09-20T09:51:38.415Z,99.99
2017-09-20T09:52:47.604Z,99.99
2017-09-20T09:53:56.149Z,99.99
2017-09-20T09:55:05.014Z,99.99
2017-09-20T09:56:13.559Z,99.99
2017-09-20T09:57:22.427Z,99.99
2017-09-20T09:58:31.293Z,99.99
2017-09-20T09:59:40.164Z,99.99
2017-09-20T10:00:49.031Z,99.99
2017-09-20T10:01:57.899Z,99.99
2017-09-20T10:03:07.412Z,99.99
2017-09-20T10:04:15.953Z,99.99
2017-09-20T10:05:24.498Z,99.99
2017-09-20T10:06:33.040Z,99.99
2017-09-20T10:07:41.590Z,99.99
2017-09-20T10:08:50.462Z,99.99
2017-09-20T10:09:59.333Z,99.99
2017-09-20T10:11:07.878Z,99.99
2017-09-20T10:12:16.748Z,99.99
2017-09-20T10:13:25.297Z,99.99
2017-09-20T10:14:34.489Z,99.99
2017-09-20T10:15:43.358Z,99.99
2017-09-20T10:16:52.223Z,99.99
2017-09-20T10:18:01.422Z,99.99
2017-09-20T10:19:10.625Z,99.99
2017-09-20T10:20:19.820Z,99.99
2017-09-20T10:21:29.334Z,99.99
2017-09-20T10:22:37.881Z,99.99
2017-09-20T10:23:47.075Z,99.99
2017-09-20T10:24:55.943Z,99.99
2017-09-20T10:26:04.492Z,99.99
2017-09-20T10:27:13.366Z,99.99
2017-09-20T10:28:22.234Z,99.99
2017-09-20T10:29:30.779Z,99.99
2017-09-20T10:30:39.325Z,99.99
2017-09-20T10:31:47.875Z,99.99
2017-09-20T10:32:56.426Z,99.99
2017-09-20T10:34:04.975Z,99.99
2017-09-20T10:35:13.846Z,99.99
2017-09-20T10:36:22.715Z,99.99
2017-09-20T10:37:31.913Z,99.99
2017-09-20T10:38:40.781Z,99.99
2017-09-20T10:39:49.654Z,99.99
2017-09-20T10:40:58.526Z,99.99
2017-09-20T10:42:07.090Z,99.99
2017-09-20T10:43:16.610Z,99.99
2017-09-20T10:44:25.804Z,99.99
2017-09-20T10:45:34.675Z,99.99
2017-09-20T10:46:43.224Z,99.99
2017-09-20T10:47:52.093Z,99.99
2017-09-20T10:49:00.643Z,99.99
2017-09-20T10:50:09.513Z,99.99
2017-09-20T10:51:18.704Z,99.99
2017-09-20T10:52:27.592Z,99.99
2017-09-20T10:53:36.149Z,99.99
2017-09-20T10:54:45.022Z,99.99
2017-09-20T10:55:54.536Z,99.99
2017-09-20T10:57:03.410Z,99.99
2017-09-20T10:58:11.956Z,99.99
2017-09-20T10:59:20.827Z,99.99
2017-09-20T11:00:30.021Z,99.99
2017-09-20T11:01:38.893Z,99.99
2017-09-20T11:02:47.440Z,99.99
2017-09-20T11:03:55.994Z,99.99
2017-09-20T11:05:04.861Z,99.21
2017-09-20T11:06:13.408Z,98.24
2017-09-20T11:07:22.600Z,98.82
2017-09-20T11:08:31.145Z,98.82
2017-09-20T11:09:40.033Z,99.3
2017-09-20T11:10:48.582Z,99.3
2017-09-20T11:11:57.127Z,98.53
2017-09-20T11:13:05.677Z,98.34
2017-09-20T11:14:14.555Z,96.42
2017-09-20T11:15:23.424Z,96.7
2017-09-20T11:16:31.975Z,97.57
2017-09-20T11:17:40.849Z,96.27
2017-09-20T11:18:49.395Z,97.62
2017-09-20T11:19:58.300Z,98.29
2017-09-20T11:21:06.875Z,98.77
2017-09-20T11:22:15.435Z,98.39
2017-09-20T11:23:24.310Z,97.24
2017-09-20T11:24:33.175Z,98.1
2017-09-20T11:25:41.720Z,97.62
2017-09-20T11:26:50.586Z,97.52
2017-09-20T11:27:59.134Z,97.52
2017-09-20T11:29:07.680Z,98.1
2017-09-20T11:30:16.557Z,98.58
2017-09-20T11:31:25.431Z,98.29
2017-09-20T11:32:33.978Z,98.77
2017-09-20T11:33:42.524Z,98.48
2017-09-20T11:34:51.068Z,98.58
2017-09-20T11:36:00.581Z,99.15
2017-09-20T11:37:09.454Z,99.35
2017-09-20T11:38:18.005Z,98.58
2017-09-20T11:39:26.550Z,98.19
2017-09-20T11:40:35.100Z,98.86
2017-09-20T11:41:43.966Z,98.19
2017-09-20T11:42:52.842Z,98.1
2017-09-20T11:44:01.712Z,98.1
2017-09-20T11:45:10.903Z,96.17
2017-09-20T11:46:19.451Z,95.98
2017-09-20T11:47:27.996Z,96.08
2017-09-20T11:48:36.867Z,96.94
2017-09-20T11:49:45.416Z,98.39
2017-09-20T11:50:54.290Z,98
2017-09-20T11:52:03.808Z,97.33
2017-09-20T11:53:12.354Z,97.33
2017-09-20T11:54:21.224Z,97.62
2017-09-20T11:55:30.096Z,98.19
2017-09-20T11:56:38.974Z,98.48
2017-09-20T11:57:47.845Z,98.68
2017-09-20T11:58:56.393Z,98.86
2017-09-20T12:00:05.262Z,99.25
2017-09-20T12:01:14.131Z,99.44
2017-09-20T12:02:22.675Z,98.86
2017-09-20T12:03:31.224Z,97.42
2017-09-20T12:04:39.773Z,96.37
2017-09-20T12:05:48.646Z,97.62
2017-09-20T12:06:57.195Z,97.52
2017-09-20T12:08:06.068Z,97.04
2017-09-20T12:09:14.617Z,98.1
2017-09-20T12:10:23.527Z,99.06
2017-09-20T12:11:32.400Z,98.1
2017-09-20T12:12:40.946Z,98.14
2017-09-20T12:13:49.818Z,97.28
2017-09-20T12:14:58.370Z,97.57
2017-09-20T12:16:06.919Z,98.14
2017-09-20T12:17:15.466Z,98.63
2017-09-20T12:18:24.015Z,99.1
2017-09-20T12:19:32.886Z,99.01
2017-09-20T12:20:41.429Z,99.68
2017-09-20T12:21:50.300Z,98.14
2017-09-20T12:22:58.856Z,99.01
2017-09-20T12:24:07.405Z,98.72
2017-09-20T12:25:16.600Z,99.3
2017-09-20T12:26:25.150Z,99.99
2017-09-20T12:27:34.021Z,99.99
2017-09-20T12:28:42.570Z,99.97
2017-09-20T12:29:51.123Z,99.58
2017-09-20T12:30:59.997Z,99.01
2017-09-20T12:32:08.871Z,99.3
2017-09-20T12:33:18.069Z,98.91
2017-09-20T12:34:26.940Z,99.2
2017-09-20T12:35:35.810Z,99.68
2017-09-20T12:36:44.359Z,99.99
2017-09-20T12:37:53.226Z,99.97
2017-09-20T12:39:02.095Z,99.78
2017-09-20T12:40:10.963Z,98.53
2017-09-20T12:41:19.516Z,98.43
2017-09-20T12:42:28.717Z,98.43
2017-09-20T12:43:37.588Z,98.43
2017-09-20T12:44:46.788Z,98.34
2017-09-20T12:45:55.336Z,99.01
2017-09-20T12:47:03.882Z,98.53
2017-09-20T12:48:12.489Z,98.53
2017-09-20T12:49:21.361Z,98.91
2017-09-20T12:50:30.235Z,98.82
2017-09-20T12:51:39.107Z,98.67
2017-09-20T12:52:47.982Z,99.15
2017-09-20T12:53:56.528Z,99.73
2017-09-20T12:55:05.274Z,99.99
2017-09-20T12:56:14.148Z,99.99
2017-09-20T12:57:23.355Z,99.99
2017-09-20T12:58:32.528Z,99.99
2017-09-20T12:59:41.076Z,99.99
2017-09-20T13:00:49.627Z,99.99
2017-09-20T13:01:58.518Z,99.99
2017-09-20T13:03:07.726Z,99.99
2017-09-20T13:04:16.594Z,99.99
2017-09-20T13:05:25.466Z,99.99
2017-09-20T13:06:34.015Z,99.99
2017-09-20T13:07:43.210Z,99.99
2017-09-20T13:08:52.779Z,99.99
2017-09-20T13:10:01.298Z,99.99
2017-09-20T13:11:09.850Z,99.99
2017-09-20T13:12:19.377Z,99.99
2017-09-20T13:13:28.894Z,99.99
2017-09-20T13:14:37.446Z,99.99
2017-09-20T13:15:45.991Z,99.99
2017-09-20T13:16:54.860Z,99.99
2017-09-20T13:18:04.052Z,99.99
2017-09-20T13:19:12.608Z,99.99
2017-09-20T13:20:21.479Z,99.99
2017-09-20T13:21:30.670Z,99.99
2017-09-20T13:22:39.863Z,99.99
2017-09-20T13:23:48.769Z,99.99
2017-09-20T13:24:57.633Z,99.99
2017-09-20T13:26:06.184Z,99.99
2017-09-20T13:27:14.733Z,99.99
2017-09-20T13:28:23.278Z,99.99
2017-09-20T13:29:32.480Z,98.63
2017-09-20T13:30:41.033Z,98.82
2017-09-20T13:31:50.225Z,99.68
2017-09-20T13:32:59.098Z,98.24
2017-09-20T13:34:07.645Z,97.96
2017-09-20T13:35:16.516Z,97.09
2017-09-20T13:36:25.061Z,98.05
2017-09-20T13:37:33.613Z,98.05
2017-09-20T13:38:42.513Z,98.91
2017-09-20T13:39:51.037Z,98.91
2017-09-20T13:41:00.245Z,98.05
2017-09-20T13:42:08.853Z,97.09
2017-09-20T13:43:18.246Z,96.8
2017-09-20T13:44:26.940Z,96.13
2017-09-20T13:45:36.135Z,96.61
2017-09-20T13:47:17.076Z,96.89
2017-09-20T13:48:25.959Z,96.99
2017-09-20T13:49:34.834Z,96.7
2017-09-20T13:50:43.715Z,96.99
2017-09-20T13:51:52.976Z,95.75
2017-09-20T13:53:01.492Z,95.94
2017-09-20T13:54:10.036Z,95.65
2017-09-20T13:55:18.909Z,95.26
2017-09-20T13:56:27.459Z,96.22
2017-09-20T13:57:36.333Z,96.17
2017-09-20T13:58:45.210Z,95.79
2017-09-20T13:59:54.115Z,95.31
2017-09-20T14:01:02.633Z,95.7
2017-09-20T14:02:11.509Z,94.06
2017-09-20T14:03:20.087Z,94.73
2017-09-20T14:04:28.635Z,94.93
2017-09-20T14:05:37.510Z,95.4
2017-09-20T14:06:46.060Z,94.73
2017-09-20T14:07:54.604Z,94.83
2017-09-20T14:09:03.606Z,92.81
2017-09-20T14:10:12.153Z,93.05
2017-09-20T14:11:21.029Z,93.24
2017-09-20T14:12:29.900Z,93.24
2017-09-20T14:13:38.457Z,93.24
2017-09-20T14:14:46.994Z,93.05
2017-09-20T14:15:55.942Z,92.76
2017-09-20T14:17:04.815Z,92.96
2017-09-20T14:18:13.683Z,93.05
2017-09-20T14:19:22.534Z,93.44
2017-09-20T14:20:31.405Z,94.01
2017-09-20T14:21:40.597Z,93.91
2017-09-20T14:22:49.469Z,94.21
2017-09-20T14:23:58.113Z,94.16
2017-09-20T14:25:07.305Z,94.93
2017-09-20T14:26:16.180Z,95.31
2017-09-20T14:27:24.729Z,94.16
2017-09-20T14:28:33.602Z,94.73
2017-09-20T14:29:42.150Z,95.5
2017-09-20T14:30:50.699Z,95.89
2017-09-20T14:31:59.583Z,96.27
2017-09-20T14:33:09.097Z,96.89
2017-09-20T14:34:17.644Z,97.38
2017-09-20T14:35:26.193Z,98.14
2017-09-20T14:36:34.743Z,97.86
2017-09-20T14:37:43.616Z,98.63
2017-09-20T14:38:52.164Z,99.01
2017-09-20T14:40:00.716Z,98.63
2017-09-20T14:41:09.592Z,98.72
2017-09-20T14:42:18.144Z,98.43
2017-09-20T14:43:27.015Z,98.82
2017-09-20T14:44:36.214Z,98.72
2017-09-20T14:45:45.081Z,99.58
2017-09-20T14:46:53.949Z,98.72
2017-09-20T14:48:02.819Z,98.91